• Join FlightAware (Why Join?)
  • Login
  • US Flag 
06:06PM EDT


 

Airport Tracker/Info


-or-


 

Live Flight TrackerFlight Track Log ✈ PDT4429 ✈ 2013년 Aug 19일 ✈ KHXD - KCLT

Flight Track Log - Related Links

Times and Time Zones

All times are in EDT time to prevent confusion due to time zone crossing. See the PDT4429 flight status page for this flight to view local times or setup timezone preferences in your user account.

Time Position Orientation Groundspeed Altitude Reporting Facility
EDT Latitude Longitude Course Direction KTS MPH feet Rate Location/Type
10:53AM 32.2647 -80.7133 321° Northwest 192 221 4,200  Level Jacksonville Center
10:54AM 32.2967 -80.7444 321° Northwest 177 204 5,800 1,500 Climbing Jacksonville Center
10:55AM 32.3283 -80.7781 318° Northwest 165 190 7,200 1,260 Climbing Jacksonville Center
10:56AM 32.3625 -80.8167 316° Northwest 165 190 8,400 1,080 Climbing Jacksonville Center
10:57AM 32.4050 -80.8625 318° Northwest 178 205 9,400 960 Climbing Jacksonville Center
10:58AM 32.4389 -80.8939 322° Northwest 178 205 10,400 960 Climbing Jacksonville Center
10:59AM 32.4814 -80.9397 318° Northwest 188 216 11,400 900 Climbing Jacksonville Center
11:00AM 32.5258 -80.9756 326° Northwest 193 222 12,300 900 Climbing Jacksonville Center
11:01AM 32.5722 -81.0117 327° Northwest 198 228 13,300 900 Climbing Jacksonville Center
11:02AM 32.6144 -81.0528 321° Northwest 198 228 14,200 840 Climbing Jacksonville Center
11:03AM 32.6672 -81.0936 327° Northwest 204 235 15,000 720 Climbing Jacksonville Center
11:04AM 32.7136 -81.1247 331° Northwest 204 235 15,700 600 Climbing Jacksonville Center
11:05AM 32.7622 -81.1608 328° Northwest 209 241 16,300 540 Climbing Jacksonville Center
11:06AM 32.8169 -81.1919 334° Northwest 209 241 16,800 300 Climbing Jacksonville Center
11:07AM 32.8733 -81.2083 346° North 209 241 17,000 60 Climbing Jacksonville Center
11:08AM 32.9356 -81.1650 30° Northeast 210 242 17,000  Level Jacksonville Center
11:09AM 32.9997 -81.1339 22° Northeast 228 262 17,000  Level Jacksonville Center
11:10AM 33.0619 -81.1056 21° North 233 268 17,000  Level Jacksonville Center
11:11AM 33.1283 -81.0694 24° Northeast 244 281 17,000  Level Jacksonville Center
11:12AM 33.1925 -81.0383 22° Northeast 249 287 17,000  Level Jacksonville Center
11:13AM 33.2589 -81.0022 24° Northeast 249 287 17,000  Level Jacksonville Center
11:14AM 33.3272 -80.9683 23° Northeast 255 293 17,000  Level Jacksonville Center
11:15AM 33.4017 -80.9344 21° North 255 293 17,000  Level Jacksonville Center
11:16AM 33.4658 -80.8983 25° Northeast 250 288 17,000  Level Jacksonville Center
11:17AM 33.5342 -80.8692 20° North 250 288 17,000  Level Jacksonville Center
11:18AM 33.6003 -80.8278 28° Northeast 250 288 17,000  Level Jacksonville Center
11:19AM 33.6686 -80.7914 24° Northeast 257 296 17,000  Level Jacksonville Center
11:20AM 33.7350 -80.7597 22° Northeast 257 296 17,000  Level Jacksonville Center
11:21AM 33.8011 -80.7208 26° Northeast 257 296 17,000 -120 Level Jacksonville Center
11:22AM 33.8672 -80.6892 22° Northeast 252 290 16,800 -480 Descending Jacksonville Center
11:23AM 33.9419 -80.6597 18° North 258 297 16,100 -780 Descending Jacksonville Center
11:24AM 34.0100 -80.6128 30° Northeast 271 312 15,300 -840 Descending Jacksonville Center
11:25AM 34.0842 -80.5658 28° Northeast 277 319 14,500 -840 Descending Jacksonville Center
11:26AM 34.1586 -80.5311 21° North 277 319 13,700 -840 Descending Jacksonville Center
11:27AM 34.2331 -80.4964 21° North 277 319 12,900 -840 Descending Jacksonville Center
11:28AM 34.3053 -80.4542 26° Northeast 277 319 12,100 -840 Descending Jacksonville Center
11:29AM 34.3794 -80.4144 24° Northeast 277 319 11,300 -840 Descending Jacksonville Center
11:30AM 34.4519 -80.3772 23° Northeast 277 319 10,500 -840 Descending Jacksonville Center
11:31AM 34.5242 -80.3422 22° Northeast 277 319 9,700 -900 Descending Jacksonville Center
11:32AM 34.5861 -80.3128 21° North 263 303 8,700 -780 Descending Jacksonville Center
11:33AM 34.6547 -80.2689 28° Northeast 240 276 8,000 -360 Descending Atlanta Center
11:34AM 34.7161 -80.2356 24° Northeast 239 275 8,000  Level Atlanta Center
11:35AM 34.7719 -80.2811 326° Northwest 204 235 8,000  Level Atlanta Center
11:36AM 34.7942 -80.3308 299° West 181 208 8,000 -420 Level Atlanta Center
11:37AM 34.7986 -80.4039 274° West 207 238 7,200 -900 Descending Atlanta Center
11:38AM 34.8050 -80.4822 276° West 248 285 6,200 -600 Descending Atlanta Center
11:39AM 34.8094 -80.5628 274° West 210 242 6,000 -120 Descending Atlanta Center
11:40AM 34.8153 -80.6258 276° West 176 203 6,000  Level Atlanta Center
11:41AM 34.8192 -80.6914 274° West 201 231 6,000 -300 Level Atlanta Center
11:42AM 34.8231 -80.7544 274° West 202 232 5,500 -780 Descending Atlanta Center
11:43AM 34.8250 -80.8278 272° West 217 250 4,500 -720 Descending Atlanta Center
11:44AM 34.8250 -80.9064 270° West 193 222 4,000 -240 Descending Atlanta Center
11:45AM 34.8714 -80.9247 342° North 179 206 4,000  Level Atlanta Center
11:46AM 34.9236 -80.9278 357° North 185 213 4,000  Level Atlanta Center
11:47AM 34.9717 -80.9336 354° North 176 203 4,100  Climbing Atlanta Center
11:48AM 35.0219 -80.9394 355° North 173 199 4,000 -480 Descending Atlanta Center
11:49AM 35.0700 -80.9403 359° North 174 200 3,200 -840 Descending Atlanta Center
11:50AM 35.1139 -80.9486 351° North 163 188 2,300 -780 Descending Atlanta Center
11:51AM 35.1517 -80.9500 358° North 131 151 1,700 -660 Descending Atlanta Center
11:52AM 35.1869 -80.9511 359° North 127 146 1,000 780 Descending Atlanta Center
11:55AM 35.2856 -81.0694 316° Northwest 266 306 4,400 1,800 Climbing Jacksonville Center
11:56AM 35.2764 -81.1611 263° West 291 335 7,100 2,700 Climbing Jacksonville Center
11:57AM 35.2569 -81.2633 257° West 291 335 9,900 2,160 Climbing Jacksonville Center
11:58AM 35.2161 -81.3478 239° Southwest 286 329 11,500 1,680 Climbing Jacksonville Center
11:59AM 35.1756 -81.4425 242° Southwest 315 362 13,300 1,800 Climbing Jacksonville Center
12:00PM 35.1433 -81.5497 250° West 335 386 15,200 1,740 Climbing Jacksonville Center
12:01PM 35.1364 -81.6692 266° West 353 406 16,800 1,320 Climbing Jacksonville Center
12:02PM 35.1269 -81.7886 265° West 370 426 17,900 1,140 Climbing Jacksonville Center
12:03PM 35.1175 -81.9131 265° West 370 426 19,100 1,200 Climbing Jacksonville Center
12:04PM 35.1081 -82.0247 264° West 370 426 20,300 1,200 Climbing Jacksonville Center
12:05PM 35.0983 -82.1517 265° West 375 432 21,600 1,200 Climbing Jacksonville Center
12:06PM 35.0928 -82.2811 267° West 388 447 22,700 1,200 Climbing Jacksonville Center
12:07PM 35.1247 -82.4078 287° West 383 441 24,100 1,260 Climbing Jacksonville Center
12:08PM 35.1583 -82.5319 288° West 396 456 25,300 900 Climbing Jacksonville Center
12:09PM 35.1900 -82.6667 286° West 408 470 26,000 300 Climbing Jacksonville Center
12:10PM 35.2236 -82.8011 287° West 408 470 26,000 420 Level Jacksonville Center
12:11PM 35.2611 -82.9433 288° West 423 487 26,900 1,200 Climbing Jacksonville Center
12:12PM 35.2944 -83.0808 287° West 431 496 28,400 1,260 Climbing Jacksonville Center
12:13PM 35.3294 -83.2131 288° West 425 489 29,500 780 Climbing Jacksonville Center
12:14PM 35.3686 -83.3633 288° West 414 476 30,000 480 Climbing Jacksonville Center
12:15PM 35.4056 -83.5036 288° West 431 496 30,500 960 Climbing Jacksonville Center
12:16PM 35.4361 -83.6414 285° West 431 496 32,000 1,200 Climbing Jacksonville Center
12:17PM 35.4667 -83.7692 286° West 403 464 33,000 900 Climbing Jacksonville Center
12:18PM 35.5011 -83.8867 290° West 397 457 33,900 480 Climbing Jacksonville Center
12:19PM 35.5250 -84.0169 283° West 397 457 34,000  Climbing Jacksonville Center
12:20PM 35.5572 -84.1578 286° West 403 464 34,000  Level Jacksonville Center
12:21PM 35.5950 -84.3114 287° West 433 498 34,000  Level Jacksonville Center
12:22PM 35.6292 -84.4344 289° West 439 505 34,000 720 Level Jacksonville Center
12:23PM 35.6647 -84.5706 288° West 426 490 35,500 960 Climbing Jacksonville Center
12:24PM 35.6878 -84.7244 280° West 407 468 36,000 240 Climbing Jacksonville Center
12:25PM 35.7192 -84.8581 286° West 407 468 36,000  Level Jacksonville Center
12:26PM 35.7522 -84.9917 287° West 412 474 36,000  Level Jacksonville Center
12:27PM 35.7875 -85.1308 287° West 435 501 36,000  Level Jacksonville Center
12:28PM 35.8103 -85.2464 284° West 430 495 36,000 -13,020 Level Jacksonville Center
12:29PM 35.8553 -85.4014 290° West 430 495 10,000 -26,040 Descending Jacksonville Center